createdAt,value
2024-03-13T00:01:11.431Z,1.50
2024-03-13T00:03:38.831Z,1.45
2024-03-13T00:06:06.303Z,1.60
2024-03-13T00:08:33.406Z,1.50
2024-03-13T00:11:00.770Z,2.03
2024-03-13T00:13:30.409Z,2.58
2024-03-13T00:15:59.843Z,2.20
2024-03-13T00:18:26.939Z,1.85
2024-03-13T00:20:54.010Z,2.05
2024-03-13T00:23:21.129Z,2.22
2024-03-13T00:25:48.307Z,1.90
2024-03-13T00:28:15.591Z,2.60
2024-03-13T00:30:42.910Z,3.17
2024-03-13T00:33:10.319Z,4.75
2024-03-13T00:35:37.873Z,3.35
2024-03-13T00:38:06.715Z,4.15
2024-03-13T00:40:36.042Z,5.40
2024-03-13T00:43:03.472Z,3.67
2024-03-13T00:45:30.732Z,4.35
2024-03-13T00:47:57.835Z,5.75
2024-03-13T00:50:25.460Z,2.97
2024-03-13T00:52:55.080Z,2.78
2024-03-13T00:55:23.086Z,2.00
2024-03-13T00:57:50.739Z,2.33
2024-03-13T01:00:20.257Z,3.15
2024-03-13T01:02:48.365Z,1.73
2024-03-13T01:05:16.556Z,1.98
2024-03-13T01:07:50.081Z,1.77
2024-03-13T01:10:17.739Z,1.80
2024-03-13T01:12:45.204Z,1.70
2024-03-13T01:15:15.964Z,2.15
2024-03-13T01:17:43.522Z,1.60
2024-03-13T01:20:16.261Z,1.30
2024-03-13T01:22:45.261Z,1.60
2024-03-13T01:25:12.902Z,1.70
2024-03-13T01:27:43.091Z,1.98
2024-03-13T01:30:11.458Z,1.17
2024-03-13T01:32:39.523Z,1.10
2024-03-13T01:35:07.872Z,1.52
2024-03-13T01:37:53.590Z,1.02
2024-03-13T01:40:26.980Z,1.27
2024-03-13T01:43:13.124Z,1.00
2024-03-13T01:46:07.966Z,1.35
2024-03-13T01:48:56.374Z,1.10
2024-03-13T01:51:42.910Z,1.10
2024-03-13T01:54:29.064Z,1.20
2024-03-13T01:57:01.172Z,1.65
2024-03-13T01:59:40.274Z,2.10
2024-03-13T02:02:23.431Z,1.00
2024-03-13T02:04:53.037Z,1.20
2024-03-13T02:07:24.181Z,1.00
2024-03-13T02:09:52.085Z,1.23
2024-03-13T02:12:19.460Z,2.00
2024-03-13T02:14:46.779Z,1.15
2024-03-13T02:17:14.071Z,1.40
2024-03-13T02:19:41.717Z,1.98
2024-03-13T02:22:08.930Z,1.20
2024-03-13T02:24:36.126Z,1.33
2024-03-13T02:27:13.263Z,1.20
2024-03-13T02:29:42.825Z,1.17
2024-03-13T02:32:12.309Z,1.67
2024-03-13T02:34:41.957Z,1.42
2024-03-13T02:37:09.275Z,1.08
2024-03-13T02:39:36.689Z,1.40
2024-03-13T02:42:03.848Z,1.20
2024-03-13T02:44:31.507Z,1.20
2024-03-13T02:46:58.584Z,1.00
2024-03-13T02:49:25.759Z,0.98
2024-03-13T02:51:53.265Z,1.00
2024-03-13T02:54:20.416Z,0.90
2024-03-13T02:56:48.009Z,2.08
2024-03-13T02:59:19.077Z,1.08
2024-03-13T03:01:46.230Z,1.00
2024-03-13T03:04:13.414Z,0.90
2024-03-13T03:06:41.785Z,0.98
2024-03-13T03:09:11.525Z,1.02
2024-03-13T03:11:38.662Z,1.00
2024-03-13T03:14:06.287Z,1.10
2024-03-13T03:16:33.545Z,1.00
2024-03-13T03:19:01.127Z,1.00
2024-03-13T03:21:28.296Z,1.35
2024-03-13T03:23:55.362Z,0.80
2024-03-13T03:26:22.520Z,0.95
2024-03-13T03:28:49.696Z,1.08
2024-03-13T03:31:17.097Z,1.10
2024-03-13T03:33:44.260Z,0.80
2024-03-13T03:36:11.457Z,1.38
2024-03-13T03:38:38.565Z,0.95
2024-03-13T03:41:05.728Z,0.85
2024-03-13T03:43:33.289Z,0.88
2024-03-13T03:46:00.860Z,0.85
2024-03-13T03:48:28.134Z,1.00
2024-03-13T03:50:55.197Z,1.10
2024-03-13T03:53:22.227Z,0.65
2024-03-13T03:55:49.270Z,1.67
2024-03-13T03:58:16.410Z,0.93
2024-03-13T04:00:43.505Z,1.08
2024-03-13T04:03:10.825Z,1.10
2024-03-13T04:05:37.975Z,1.40
2024-03-13T04:08:05.765Z,1.13
2024-03-13T04:10:33.295Z,0.82
2024-03-13T04:13:01.314Z,1.23
2024-03-13T04:15:28.453Z,0.88
2024-03-13T04:17:56.005Z,0.85
2024-03-13T04:20:23.692Z,0.85
2024-03-13T04:22:51.685Z,1.45
2024-03-13T04:25:20.017Z,0.85
2024-03-13T04:27:48.597Z,1.02
2024-03-13T04:30:15.901Z,0.80
2024-03-13T04:32:43.190Z,0.90
2024-03-13T04:35:10.472Z,0.68
2024-03-13T04:37:40.400Z,1.20
2024-03-13T04:40:10.646Z,0.90
2024-03-13T04:42:38.160Z,0.90
2024-03-13T04:45:08.091Z,0.73
2024-03-13T04:47:39.607Z,0.93
2024-03-13T04:50:09.981Z,0.80
2024-03-13T04:52:37.316Z,0.82
2024-03-13T04:55:05.379Z,0.80
2024-03-13T04:57:34.152Z,0.77
2024-03-13T05:00:01.301Z,0.85
2024-03-13T05:02:28.428Z,0.80
2024-03-13T05:04:55.533Z,0.70
2024-03-13T05:07:23.533Z,1.10
2024-03-13T05:09:52.694Z,1.00
2024-03-13T05:12:19.849Z,1.25
2024-03-13T05:14:47.449Z,1.10
2024-03-13T05:17:17.235Z,1.42
2024-03-13T05:19:44.530Z,1.77
2024-03-13T05:22:11.716Z,1.75
2024-03-13T05:24:38.816Z,2.08
2024-03-13T05:27:06.734Z,2.30
2024-03-13T05:29:33.976Z,4.80
2024-03-13T05:32:08.501Z,3.05
2024-03-13T05:34:35.804Z,3.33
2024-03-13T05:37:03.090Z,2.95
2024-03-13T05:39:30.339Z,5.22
2024-03-13T05:41:57.868Z,3.63
2024-03-13T05:44:25.454Z,3.63
2024-03-13T05:46:52.792Z,4.13
2024-03-13T05:49:20.110Z,3.55
2024-03-13T05:51:48.701Z,4.63
2024-03-13T05:54:15.906Z,3.75
2024-03-13T05:56:44.439Z,4.28
2024-03-13T05:59:11.558Z,3.70
2024-03-13T06:01:39.179Z,5.05
2024-03-13T06:04:06.546Z,3.53
2024-03-13T06:06:33.676Z,3.08
2024-03-13T06:09:00.971Z,2.90
2024-03-13T06:11:28.915Z,2.42
2024-03-13T06:13:56.549Z,2.10
2024-03-13T06:16:23.717Z,2.10
2024-03-13T06:18:51.429Z,2.03
2024-03-13T06:21:20.282Z,2.55
2024-03-13T06:23:53.389Z,2.75
2024-03-13T06:26:22.175Z,3.47
2024-03-13T06:29:08.320Z,2.70
2024-03-13T06:31:41.083Z,3.65
2024-03-13T06:34:11.742Z,3.22
2024-03-13T06:36:40.440Z,2.80
2024-03-13T06:39:08.458Z,3.00
2024-03-13T06:41:35.596Z,3.10
2024-03-13T06:44:03.265Z,2.33
2024-03-13T06:46:30.891Z,2.22
2024-03-13T06:48:58.036Z,2.47
2024-03-13T06:51:25.284Z,2.30
2024-03-13T06:53:52.342Z,2.00
2024-03-13T06:56:19.461Z,1.88
2024-03-13T06:58:46.953Z,2.30
2024-03-13T07:01:14.760Z,2.58
2024-03-13T07:03:42.882Z,2.42
2024-03-13T07:06:13.440Z,3.05
2024-03-13T07:08:40.521Z,2.30
2024-03-13T07:11:07.929Z,2.38
2024-03-13T07:13:35.833Z,3.38
2024-03-13T07:16:03.008Z,2.22
2024-03-13T07:18:33.311Z,2.55
2024-03-13T07:21:00.474Z,3.25
2024-03-13T07:23:28.173Z,3.03
2024-03-13T07:25:56.509Z,3.15
2024-03-13T07:28:23.798Z,2.75
2024-03-13T07:30:51.014Z,2.90
2024-03-13T07:33:18.704Z,2.88
2024-03-13T07:35:45.836Z,3.53
2024-03-13T07:38:13.018Z,3.63
2024-03-13T07:40:43.553Z,2.80
2024-03-13T07:43:10.787Z,3.30
2024-03-13T07:45:39.269Z,2.92
2024-03-13T07:48:09.847Z,2.60
2024-03-13T07:50:39.971Z,2.95
2024-03-13T07:53:07.847Z,2.63
2024-03-13T07:55:35.688Z,2.97
2024-03-13T07:58:04.323Z,2.58
2024-03-13T08:00:36.453Z,3.30
2024-03-13T08:03:04.070Z,3.30
2024-03-13T08:05:31.306Z,4.15
2024-03-13T09:05:55.696Z,0.85
2024-03-13T09:08:35.991Z,1.95
2024-03-13T09:11:13.812Z,0.73
2024-03-13T09:13:45.218Z,1.05
2024-03-13T09:16:15.710Z,0.85
2024-03-13T09:18:43.259Z,1.07
2024-03-13T09:21:13.487Z,1.02
2024-03-13T09:23:40.823Z,1.20
2024-03-13T09:26:08.085Z,1.33
2024-03-13T09:28:35.158Z,1.23
2024-03-13T09:31:03.817Z,1.20
2024-03-13T09:33:32.714Z,1.92
2024-03-13T09:36:01.937Z,1.30
2024-03-13T09:38:29.252Z,1.58
2024-03-13T09:40:56.524Z,1.10
2024-03-13T09:43:30.237Z,1.00
2024-03-13T09:45:58.112Z,1.20
2024-03-13T09:48:26.476Z,1.38
2024-03-13T09:50:57.700Z,3.17
2024-03-13T09:53:25.803Z,1.45
2024-03-13T09:55:54.102Z,1.50
2024-03-13T09:58:22.700Z,1.45
2024-03-13T10:00:54.784Z,1.30
2024-03-13T10:03:26.814Z,1.35
2024-03-13T10:06:13.779Z,1.20
2024-03-13T10:08:45.921Z,1.70
2024-03-13T10:11:16.709Z,1.50
2024-03-13T10:13:45.483Z,1.50
2024-03-13T10:16:13.456Z,3.10
2024-03-13T10:18:49.486Z,1.33
2024-03-13T10:21:28.230Z,1.30
2024-03-13T10:24:00.450Z,1.70
2024-03-13T10:26:30.206Z,1.60
2024-03-13T10:28:58.646Z,1.88
2024-03-13T10:31:26.618Z,1.77
2024-03-13T10:33:57.674Z,1.58
2024-03-13T10:36:25.243Z,1.73
2024-03-13T10:38:54.351Z,2.28
2024-03-13T10:41:21.779Z,1.55
2024-03-13T10:43:49.008Z,1.50
2024-03-13T10:46:16.510Z,1.67
2024-03-13T10:48:43.813Z,1.60
2024-03-13T10:51:15.387Z,4.13
2024-03-13T10:53:46.433Z,3.38
2024-03-13T10:56:15.986Z,1.35
2024-03-13T10:58:48.284Z,1.30
2024-03-13T11:01:20.091Z,0.90
2024-03-13T11:03:57.317Z,1.30
2024-03-13T11:06:25.808Z,2.13
2024-03-13T11:08:53.698Z,1.30
2024-03-13T11:11:28.228Z,1.02
2024-03-13T11:13:57.788Z,0.90
2024-03-13T11:16:26.568Z,1.23
2024-03-13T11:18:57.714Z,1.23
2024-03-13T11:21:46.438Z,2.03
2024-03-13T11:24:26.393Z,1.40
2024-03-13T11:26:54.259Z,1.50
2024-03-13T11:29:35.680Z,1.60
2024-03-13T11:34:31.355Z,1.38
2024-03-13T11:36:59.563Z,1.30
2024-03-13T11:39:27.249Z,1.17
2024-03-13T11:41:54.340Z,1.50
2024-03-13T11:44:21.387Z,2.55
2024-03-13T11:46:51.181Z,1.10
2024-03-13T11:49:20.703Z,2.67
2024-03-13T11:52:04.295Z,2.45
2024-03-13T11:54:33.766Z,1.17
2024-03-13T11:57:14.318Z,2.20
2024-03-13T11:59:57.638Z,1.70
2024-03-13T12:02:33.238Z,1.70
2024-03-13T12:05:07.964Z,2.35
2024-03-13T12:07:43.886Z,1.90
2024-03-13T12:10:21.029Z,2.60
2024-03-13T12:12:48.568Z,2.40
2024-03-13T12:15:21.159Z,2.30
2024-03-13T12:17:53.128Z,2.17
2024-03-13T12:20:23.402Z,3.42
2024-03-13T12:22:52.762Z,2.40
2024-03-13T12:25:23.337Z,2.45
2024-03-13T12:27:52.015Z,2.60
2024-03-13T12:30:21.796Z,2.20
2024-03-13T12:32:59.739Z,2.58
2024-03-13T12:35:27.777Z,2.15
2024-03-13T12:37:58.290Z,2.20
2024-03-13T12:40:26.519Z,2.50
2024-03-13T12:42:54.027Z,2.35
2024-03-13T12:45:22.765Z,2.83
2024-03-13T12:47:50.280Z,2.90
2024-03-13T12:50:19.499Z,2.42
2024-03-13T12:52:48.010Z,2.97
2024-03-13T12:55:21.379Z,2.70
2024-03-13T12:57:49.958Z,3.00
2024-03-13T13:00:21.693Z,3.47
2024-03-13T13:02:54.617Z,2.85
2024-03-13T13:05:22.454Z,2.88
2024-03-13T13:07:57.570Z,2.80
2024-03-13T13:10:26.549Z,2.95
2024-03-13T13:12:57.933Z,2.13
2024-03-13T13:15:28.426Z,4.40
2024-03-13T13:17:55.745Z,3.47
2024-03-13T13:20:25.725Z,2.88
2024-03-13T13:22:53.919Z,2.72
2024-03-13T13:25:23.463Z,2.92
2024-03-13T13:27:52.452Z,2.60
2024-03-13T13:30:20.261Z,2.50
2024-03-13T13:32:49.052Z,2.70
2024-03-13T13:35:16.536Z,2.40
2024-03-13T13:37:47.749Z,3.15
2024-03-13T13:42:53.470Z,2.08
2024-03-13T13:45:24.121Z,2.38
2024-03-13T13:47:55.510Z,2.67
2024-03-13T13:50:23.081Z,3.20
2024-03-13T13:52:50.802Z,2.33
2024-03-13T13:55:18.768Z,3.03
2024-03-13T13:57:52.776Z,3.17
2024-03-13T14:00:24.308Z,2.25
2024-03-13T14:02:53.993Z,3.55
2024-03-13T14:05:21.738Z,2.40
2024-03-13T14:07:51.961Z,4.60
2024-03-13T14:10:20.031Z,2.60
2024-03-13T14:12:49.491Z,2.60
2024-03-13T14:15:20.958Z,2.38
2024-03-13T14:20:22.919Z,2.53
2024-03-13T14:22:55.917Z,2.88
2024-03-13T14:25:27.514Z,3.60
2024-03-13T14:27:55.260Z,2.33
2024-03-13T14:30:22.938Z,2.95
2024-03-13T14:32:50.308Z,2.22
2024-03-13T14:35:17.444Z,3.08
2024-03-13T14:37:44.636Z,1.83
2024-03-13T14:40:12.931Z,3.78
2024-03-13T14:42:40.255Z,2.47
2024-03-13T14:45:08.140Z,4.75
2024-03-13T14:47:35.968Z,3.67
2024-03-13T14:50:03.343Z,1.90
2024-03-13T14:52:30.461Z,2.88
2024-03-13T14:54:58.198Z,2.83
2024-03-13T14:57:28.806Z,4.90
2024-03-13T14:59:56.401Z,3.20
2024-03-13T15:02:23.486Z,3.10
2024-03-13T15:04:53.835Z,2.03
2024-03-13T15:07:20.954Z,2.17
2024-03-13T15:09:49.780Z,3.78
2024-03-13T15:12:17.116Z,2.38
2024-03-13T15:14:45.528Z,3.13
2024-03-13T15:17:14.510Z,2.50
2024-03-13T15:19:45.709Z,4.10
2024-03-13T15:22:13.636Z,5.25
2024-03-13T15:24:42.246Z,2.33
2024-03-13T15:27:09.518Z,2.20
2024-03-13T15:29:38.207Z,2.00
2024-03-13T15:32:06.873Z,1.70
2024-03-13T15:34:34.053Z,3.10
2024-03-13T15:37:01.833Z,3.75
2024-03-13T15:39:29.195Z,4.78
2024-03-13T15:41:56.428Z,1.58
2024-03-13T15:44:23.874Z,2.70
2024-03-13T15:46:51.990Z,1.70
2024-03-13T15:49:19.812Z,2.78
2024-03-13T15:51:48.732Z,2.15
2024-03-13T15:54:16.311Z,4.43
2024-03-13T15:56:43.947Z,2.75
2024-03-13T15:59:13.856Z,1.65
2024-03-13T16:01:41.651Z,1.50
2024-03-13T16:04:09.636Z,1.40
2024-03-13T16:06:38.167Z,1.52
2024-03-13T16:09:13.076Z,2.13
2024-03-13T16:11:43.521Z,2.80
2024-03-13T16:14:11.766Z,1.73
2024-03-13T16:16:39.272Z,3.88
2024-03-13T16:19:06.873Z,1.60
2024-03-13T16:21:35.600Z,2.13
2024-03-13T16:24:04.767Z,2.63
2024-03-13T16:26:32.150Z,2.58
2024-03-13T16:28:59.469Z,4.53
2024-03-13T16:31:26.640Z,2.13
2024-03-13T16:33:54.711Z,2.28
2024-03-13T16:36:21.964Z,1.60
2024-03-13T16:38:56.701Z,4.35
2024-03-13T16:41:23.828Z,1.92
2024-03-13T16:43:51.006Z,1.98
2024-03-13T16:46:18.502Z,2.65
2024-03-13T16:48:45.755Z,1.73
2024-03-13T16:51:13.066Z,2.60
2024-03-13T16:53:40.327Z,1.77
2024-03-13T16:56:10.790Z,2.53
2024-03-13T16:58:37.983Z,2.83
2024-03-13T17:01:05.259Z,2.10
2024-03-13T17:03:33.778Z,1.52
2024-03-13T17:06:01.056Z,1.80
2024-03-13T17:08:28.296Z,2.03
2024-03-13T17:10:55.396Z,2.78
2024-03-13T17:13:22.518Z,1.50
2024-03-13T17:15:49.633Z,1.30
2024-03-13T17:18:16.886Z,2.08
2024-03-13T17:20:45.996Z,1.42
2024-03-13T17:23:13.375Z,3.20
2024-03-13T17:25:43.463Z,1.30
2024-03-13T17:28:10.676Z,1.73
2024-03-13T17:30:37.808Z,1.55
2024-03-13T17:33:06.694Z,1.35
2024-03-13T17:35:35.050Z,1.35
2024-03-13T17:38:03.592Z,3.17
2024-03-13T17:40:30.641Z,2.15
2024-03-13T17:42:57.845Z,2.15
2024-03-13T17:45:25.876Z,1.35
2024-03-13T17:47:53.184Z,3.60
2024-03-13T17:50:20.256Z,1.98
2024-03-13T17:52:47.415Z,2.03
2024-03-13T17:55:14.663Z,3.05
2024-03-13T17:57:41.807Z,2.60
2024-03-13T18:00:09.808Z,2.50
2024-03-13T18:02:39.249Z,3.10
2024-03-13T18:05:11.252Z,4.65
2024-03-13T18:07:39.430Z,4.78
2024-03-13T18:10:07.618Z,7.38
2024-03-13T18:12:36.350Z,5.43
2024-03-13T18:15:04.101Z,5.75
2024-03-13T18:17:31.228Z,5.32
2024-03-13T18:19:58.331Z,5.90
2024-03-13T18:22:25.889Z,5.68
2024-03-13T18:24:54.717Z,6.60
2024-03-13T18:27:22.251Z,6.50
2024-03-13T18:29:49.462Z,10.40
2024-03-13T18:32:16.716Z,14.07
2024-03-13T18:34:44.584Z,16.33
2024-03-13T18:37:11.692Z,26.73
2024-03-13T18:39:40.729Z,31.35
2024-03-13T18:42:07.974Z,23.75
2024-03-13T18:44:35.303Z,16.98
2024-03-13T18:47:02.882Z,13.98
2024-03-13T18:49:30.094Z,10.15
2024-03-13T18:51:57.284Z,8.95
2024-03-13T18:54:24.594Z,8.77
2024-03-13T18:56:51.912Z,7.10
2024-03-13T18:59:19.754Z,7.50
2024-03-13T19:01:47.206Z,9.55
2024-03-13T19:04:14.436Z,7.93
2024-03-13T19:06:42.298Z,7.45
2024-03-13T19:09:10.251Z,8.63
2024-03-13T19:11:39.290Z,13.25
2024-03-13T19:14:06.602Z,15.02
2024-03-13T19:16:36.954Z,12.80
2024-03-13T19:19:04.825Z,10.50
2024-03-13T19:21:32.265Z,8.23
2024-03-13T19:23:59.516Z,9.18
2024-03-13T19:26:30.867Z,7.78
2024-03-13T19:28:58.136Z,7.30
2024-03-13T19:31:31.276Z,6.68
2024-03-13T19:34:04.696Z,9.35
2024-03-13T19:36:32.013Z,9.38
2024-03-13T19:38:59.217Z,7.03
2024-03-13T19:41:26.571Z,10.23
2024-03-13T19:43:55.177Z,8.13
2024-03-13T19:46:22.251Z,5.68
2024-03-13T19:48:50.011Z,6.00
2024-03-13T19:51:17.438Z,6.93
2024-03-13T19:53:44.687Z,5.78
2024-03-13T19:56:12.316Z,6.35
2024-03-13T19:58:40.454Z,5.18
2024-03-13T20:01:07.865Z,7.07
2024-03-13T20:03:35.433Z,5.28
2024-03-13T20:06:03.042Z,7.78
2024-03-13T20:08:31.474Z,6.88
2024-03-13T20:11:02.386Z,6.88
2024-03-13T20:13:29.721Z,6.45
2024-03-13T20:15:57.235Z,7.50
2024-03-13T20:18:24.457Z,6.75
2024-03-13T20:20:51.856Z,6.15
2024-03-13T20:23:18.944Z,8.57
2024-03-13T20:25:46.904Z,11.75
2024-03-13T20:28:15.040Z,13.15
2024-03-13T20:30:42.382Z,11.23
2024-03-13T20:33:11.279Z,9.98
2024-03-13T20:35:39.485Z,8.90
2024-03-13T20:38:06.722Z,7.70
2024-03-13T20:40:37.849Z,8.57
2024-03-13T20:43:06.366Z,5.63
2024-03-13T20:45:33.544Z,6.25
2024-03-13T20:48:01.032Z,5.30
2024-03-13T20:50:28.148Z,5.50
2024-03-13T20:52:55.174Z,6.80
2024-03-13T20:55:23.189Z,4.22
2024-03-13T20:57:50.354Z,4.95
2024-03-13T21:00:22.092Z,5.45
2024-03-13T21:02:51.992Z,6.15
2024-03-13T21:05:19.156Z,6.63
2024-03-13T21:07:46.300Z,5.55
2024-03-13T21:10:15.249Z,6.03
2024-03-13T21:12:45.035Z,7.07
2024-03-13T21:15:12.551Z,7.03
2024-03-13T21:17:41.591Z,5.07
2024-03-13T21:20:11.263Z,4.65
2024-03-13T21:22:41.233Z,4.38
2024-03-13T21:25:09.371Z,4.28
2024-03-13T21:27:39.739Z,5.78
2024-03-13T21:30:11.395Z,5.18
2024-03-13T21:32:38.709Z,5.80
2024-03-13T21:35:06.200Z,3.97
2024-03-13T21:37:33.258Z,4.57
2024-03-13T21:40:00.525Z,4.82
2024-03-13T21:42:27.905Z,3.70
2024-03-13T21:44:55.777Z,4.05
2024-03-13T21:47:22.988Z,4.00
2024-03-13T21:49:50.714Z,4.00
2024-03-13T21:52:17.909Z,3.90
2024-03-13T21:54:45.034Z,4.05
2024-03-13T21:57:12.967Z,4.88
2024-03-13T21:59:40.196Z,3.53
2024-03-13T22:02:08.812Z,3.58
2024-03-13T22:04:35.894Z,6.13
2024-03-13T22:07:04.588Z,5.30
2024-03-13T22:09:32.284Z,6.03
2024-03-13T22:11:59.784Z,5.22
2024-03-13T22:14:28.656Z,3.88
2024-03-13T22:16:55.774Z,4.07
2024-03-13T22:19:22.892Z,3.60
2024-03-13T22:21:50.052Z,5.07
2024-03-13T22:24:17.246Z,4.22
2024-03-13T22:26:46.853Z,5.13
2024-03-13T22:29:14.152Z,4.53
2024-03-13T22:31:41.825Z,3.58
2024-03-13T22:34:09.004Z,4.72
2024-03-13T22:36:36.054Z,3.30
2024-03-13T22:39:06.436Z,3.03
2024-03-13T22:41:33.563Z,2.83
2024-03-13T22:44:00.981Z,4.30
2024-03-13T22:46:28.990Z,3.83
2024-03-13T22:48:56.179Z,3.10
2024-03-13T22:51:23.670Z,3.03
2024-03-13T22:53:51.431Z,4.15
2024-03-13T22:56:18.655Z,2.45
2024-03-13T22:58:45.792Z,3.22
2024-03-13T23:01:14.042Z,2.53
2024-03-13T23:03:41.662Z,2.60
2024-03-13T23:06:09.413Z,2.78
2024-03-13T23:08:38.199Z,3.47
2024-03-13T23:11:05.466Z,2.45
2024-03-13T23:13:32.555Z,2.03
2024-03-13T23:15:59.686Z,2.30
2024-03-13T23:18:29.158Z,3.92
2024-03-13T23:20:56.535Z,2.30
2024-03-13T23:23:27.514Z,2.60
2024-03-13T23:25:54.994Z,2.45
2024-03-13T23:28:22.477Z,2.65
2024-03-13T23:30:49.804Z,2.50
2024-03-13T23:33:17.141Z,2.35
2024-03-13T23:35:44.303Z,3.13
2024-03-13T23:38:11.788Z,3.72
2024-03-13T23:40:39.209Z,2.80
2024-03-13T23:43:06.415Z,2.70
2024-03-13T23:45:33.702Z,3.25
2024-03-13T23:48:00.959Z,2.17
2024-03-13T23:50:28.245Z,2.10
2024-03-13T23:52:55.404Z,2.40
2024-03-13T23:55:22.590Z,1.92
2024-03-13T23:57:50.438Z,1.95
